createdAt,value
2018-05-02T00:00:03.194Z,99800.52
2018-05-02T00:02:33.623Z,99807.69
2018-05-02T00:05:03.232Z,99811.09
2018-05-02T00:07:32.848Z,99815.66
2018-05-02T00:10:02.505Z,99820.33
2018-05-02T00:12:32.155Z,99820.98
2018-05-02T00:15:01.782Z,99821.61
2018-05-02T00:17:31.441Z,99827.39
2018-05-02T00:20:01.061Z,99833.63
2018-05-02T00:22:30.684Z,99833.22
2018-05-02T00:25:00.336Z,99835.09
2018-05-02T00:27:29.964Z,99840.55
2018-05-02T00:29:59.682Z,99844.61
2018-05-02T00:32:29.304Z,99855.64
2018-05-02T00:34:58.924Z,99846.72
2018-05-02T00:37:28.584Z,99843.67
2018-05-02T00:39:58.199Z,99841.63
2018-05-02T00:42:27.806Z,99842.63
2018-05-02T00:44:57.476Z,99839.95
2018-05-02T00:47:27.100Z,99832.75
2018-05-02T00:49:56.747Z,99834.39
2018-05-02T00:52:26.506Z,99834.34
2018-05-02T00:54:56.135Z,99833.05
2018-05-02T00:57:25.755Z,99828.05
2018-05-02T00:59:55.432Z,99831.64
2018-05-02T01:02:25.059Z,99837.83
2018-05-02T01:04:54.679Z,99830.38
2018-05-02T01:07:24.352Z,99828.70
2018-05-02T01:09:53.965Z,99822.58
2018-05-02T01:12:23.615Z,99831.45
2018-05-02T01:14:53.272Z,99839.34
2018-05-02T01:17:22.912Z,99845.18
2018-05-02T01:19:52.543Z,99841.12
2018-05-02T01:22:22.190Z,99844.55
2018-05-02T01:24:51.813Z,99851.51
2018-05-02T01:27:21.468Z,99839.09
2018-05-02T01:29:51.360Z,99842.44
2018-05-02T01:32:20.992Z,99846.98
2018-05-02T01:34:50.600Z,99846.56
2018-05-02T01:37:20.254Z,99848.80
2018-05-02T01:39:49.591Z,99862.16
2018-05-02T01:42:19.209Z,99859.18
2018-05-02T01:44:48.867Z,99866.66
2018-05-02T01:47:18.502Z,99871.73
2018-05-02T01:49:48.190Z,99872.30
2018-05-02T01:52:17.849Z,99873.27
2018-05-02T01:54:47.466Z,99879.08
2018-05-02T01:57:17.112Z,99880.73
2018-05-02T01:59:46.811Z,99882.52
2018-05-02T02:02:16.423Z,99873.26
2018-05-02T02:04:46.092Z,99881.63
2018-05-02T02:07:15.434Z,99881.73
2018-05-02T02:09:44.785Z,99884.31
2018-05-02T02:12:14.172Z,99874.73
2018-05-02T02:14:43.636Z,99870.25
2018-05-02T02:17:13.418Z,99875.38
2018-05-02T02:19:43.081Z,99878.83
2018-05-02T02:22:12.700Z,99873.23
2018-05-02T02:24:42.306Z,99870.72
2018-05-02T02:27:11.972Z,99879.70
2018-05-02T02:29:41.607Z,99881.00
2018-05-02T02:32:11.254Z,99885.02
2018-05-02T02:34:40.951Z,99889.00
2018-05-02T02:37:10.569Z,99890.12
2018-05-02T02:39:40.200Z,99891.05
2018-05-02T02:42:09.869Z,99893.55
2018-05-02T02:44:39.494Z,99892.60
2018-05-02T02:47:09.136Z,99894.23
2018-05-02T02:49:38.805Z,99891.73
2018-05-02T02:52:08.419Z,99898.05
2018-05-02T02:54:37.813Z,99896.86
2018-05-02T02:57:07.470Z,99902.05
2018-05-02T02:59:37.088Z,99903.00
2018-05-02T03:02:06.699Z,99895.89
2018-05-02T03:04:36.366Z,99901.30
2018-05-02T03:07:05.667Z,99906.41
2018-05-02T03:09:35.508Z,99898.50
2018-05-02T03:12:05.192Z,99903.56
2018-05-02T03:14:34.805Z,99903.86
2018-05-02T03:17:04.420Z,99896.17
2018-05-02T03:19:34.091Z,99900.00
2018-05-02T03:22:03.692Z,99892.90
2018-05-02T03:24:33.308Z,99885.38
2018-05-02T03:27:02.975Z,99881.48
2018-05-02T03:29:32.531Z,99887.37
2018-05-02T03:32:02.157Z,99885.92
2018-05-02T03:34:31.834Z,99887.02
2018-05-02T03:37:01.534Z,99889.98
2018-05-02T03:39:31.144Z,99897.85
2018-05-02T03:42:00.802Z,99889.98
2018-05-02T03:44:30.406Z,99901.92
2018-05-02T03:47:00.024Z,99910.91
2018-05-02T03:49:29.702Z,99909.41
2018-05-02T03:51:59.315Z,99911.45
2018-05-02T03:54:28.930Z,99916.22
2018-05-02T03:56:58.590Z,99914.60
2018-05-02T03:59:39.528Z,99905.15
2018-05-02T04:02:20.259Z,99905.62
2018-05-02T04:05:00.830Z,99904.05
2018-05-02T04:07:30.234Z,99910.28
2018-05-02T04:09:59.842Z,99913.27
2018-05-02T04:12:29.220Z,99913.83
2018-05-02T04:14:58.878Z,99910.97
2018-05-02T04:17:28.517Z,99915.98
2018-05-02T04:19:58.135Z,99917.09
2018-05-02T04:22:27.805Z,99918.30
2018-05-02T04:24:57.420Z,99920.88
2018-05-02T04:27:27.031Z,99919.67
2018-05-02T04:29:56.687Z,99930.03
2018-05-02T04:32:26.298Z,99934.17
2018-05-02T04:34:55.916Z,99931.20
2018-05-02T04:37:25.316Z,99941.75
2018-05-02T04:39:54.936Z,99942.05
2018-05-02T04:42:24.589Z,99952.44
2018-05-02T04:44:54.275Z,99951.78
2018-05-02T04:47:23.897Z,99959.77
2018-05-02T04:49:53.535Z,99972.16
2018-05-02T04:52:23.194Z,99975.77
2018-05-02T04:54:52.807Z,99966.34
2018-05-02T04:57:22.434Z,99974.38
2018-05-02T04:59:52.100Z,99962.83
2018-05-02T05:02:21.717Z,99963.80
2018-05-02T05:04:51.402Z,99961.31
2018-05-02T05:07:21.091Z,99961.41
2018-05-02T05:09:50.711Z,99960.11
2018-05-02T05:12:20.404Z,99965.87
2018-05-02T05:14:50.221Z,99962.36
2018-05-02T05:17:19.831Z,99955.58
2018-05-02T05:19:49.480Z,99955.10
2018-05-02T05:22:19.142Z,99957.16
2018-05-02T05:24:48.754Z,99958.27
2018-05-02T05:27:18.394Z,99953.38
2018-05-02T05:29:48.055Z,99951.22
2018-05-02T05:32:17.676Z,99948.81
2018-05-02T05:34:47.302Z,99946.25
2018-05-02T05:37:16.954Z,99951.55
2018-05-02T05:39:46.593Z,99952.86
2018-05-02T05:42:16.210Z,99955.56
2018-05-02T05:44:45.858Z,99952.98
2018-05-02T05:47:15.500Z,99945.14
2018-05-02T05:49:45.107Z,99946.34
2018-05-02T05:52:14.757Z,99946.98
2018-05-02T05:54:44.405Z,99953.55
2018-05-02T05:57:14.029Z,99953.44
2018-05-02T05:59:43.691Z,99945.61
2018-05-02T06:02:13.306Z,99955.78
2018-05-02T06:04:42.925Z,99953.36
2018-05-02T06:07:13.311Z,99944.84
2018-05-02T06:09:42.947Z,99946.31
2018-05-02T06:12:12.557Z,99951.30
2018-05-02T06:14:42.214Z,99941.91
2018-05-02T06:17:11.842Z,99937.91
2018-05-02T06:19:41.454Z,99935.64
2018-05-02T06:22:11.117Z,99937.69
2018-05-02T06:24:40.734Z,99940.39
2018-05-02T06:27:10.372Z,99944.87
2018-05-02T06:29:40.036Z,99938.09
2018-05-02T06:32:09.669Z,99937.23
2018-05-02T06:34:39.308Z,99931.28
2018-05-02T06:37:08.966Z,99943.92
2018-05-02T06:39:38.354Z,99937.33
2018-05-02T06:42:08.047Z,99940.07
2018-05-02T06:44:37.875Z,99945.34
2018-05-02T06:47:07.487Z,99952.31
2018-05-02T06:49:37.128Z,99947.64
2018-05-02T06:52:06.805Z,99946.91
2018-05-02T06:54:36.459Z,99946.17
2018-05-02T06:57:06.325Z,99947.92
2018-05-02T06:59:35.980Z,99947.28
2018-05-02T07:02:05.604Z,99949.45
2018-05-02T07:04:35.237Z,99951.89
2018-05-02T07:07:04.904Z,99947.02
2018-05-02T07:09:34.519Z,99949.48
2018-05-02T07:12:04.163Z,99952.16
2018-05-02T07:14:33.823Z,99948.88
2018-05-02T07:17:03.439Z,99953.44
2018-05-02T07:19:33.077Z,99952.02
2018-05-02T07:22:02.711Z,99956.25
2018-05-02T07:24:32.338Z,99963.59
2018-05-02T07:27:01.975Z,99961.14
2018-05-02T07:29:31.670Z,99959.92
2018-05-02T07:32:01.287Z,99957.00
2018-05-02T07:34:30.930Z,99951.80
2018-05-02T07:37:00.579Z,99945.52
2018-05-02T07:39:30.208Z,99950.53
2018-05-02T07:41:59.826Z,99944.09
2018-05-02T07:44:29.542Z,99940.41
2018-05-02T07:46:59.170Z,99941.41
2018-05-02T07:49:28.781Z,99936.97
2018-05-02T07:51:58.493Z,99937.09
2018-05-02T07:54:28.108Z,99943.39
2018-05-02T07:56:57.740Z,99937.08
2018-05-02T07:59:27.620Z,99933.54
2018-05-02T08:01:57.232Z,99943.77
2018-05-02T08:04:26.895Z,99941.16
2018-05-02T08:06:56.562Z,99938.63
2018-05-02T08:09:26.195Z,99942.14
2018-05-02T08:11:55.871Z,99945.23
2018-05-02T08:14:26.013Z,99942.80
2018-05-02T08:16:55.753Z,99936.81
2018-05-02T08:19:25.377Z,99940.69
2018-05-02T08:21:55.030Z,99930.06
2018-05-02T08:24:24.652Z,99929.66
2018-05-02T08:26:54.279Z,99931.58
2018-05-02T08:29:24.153Z,99929.55
2018-05-02T08:31:53.788Z,99931.31
2018-05-02T08:34:23.408Z,99939.58
2018-05-02T08:36:53.079Z,99927.36
2018-05-02T08:39:22.734Z,99928.72
2018-05-02T08:41:52.338Z,99938.34
2018-05-02T08:44:22.013Z,99933.61
2018-05-02T08:46:51.730Z,99923.02
2018-05-02T08:49:21.369Z,99924.11
2018-05-02T08:51:51.015Z,99915.17
2018-05-02T08:54:20.632Z,99920.18
2018-05-02T08:56:50.238Z,99915.42
2018-05-02T08:59:19.940Z,99914.83
2018-05-02T09:01:49.647Z,99924.86
2018-05-02T09:04:19.420Z,99912.67
2018-05-02T09:06:49.082Z,99917.48
2018-05-02T09:09:18.721Z,99911.38
2018-05-02T09:11:48.335Z,99906.44
2018-05-02T09:14:18.254Z,99904.29
2018-05-02T09:16:47.968Z,99902.05
2018-05-02T09:19:17.639Z,99898.19
2018-05-02T09:21:49.089Z,99907.70
2018-05-02T09:24:19.976Z,99892.47
2018-05-02T09:26:49.639Z,99898.62
2018-05-02T09:29:18.933Z,99891.42
2018-05-02T09:31:48.566Z,99890.45
2018-05-02T09:34:18.235Z,99893.17
2018-05-02T09:36:47.842Z,99883.98
2018-05-02T09:39:17.184Z,99887.95
2018-05-02T09:41:46.839Z,99882.42
2018-05-02T09:44:16.475Z,99879.18
2018-05-02T09:46:46.100Z,99880.81
2018-05-02T09:49:15.815Z,99880.16
2018-05-02T09:51:45.436Z,99880.27
2018-05-02T09:54:15.063Z,99873.72
2018-05-02T09:56:44.724Z,99866.09
2018-05-02T09:59:14.341Z,99864.61
2018-05-02T10:01:43.966Z,99858.27
2018-05-02T10:04:13.615Z,99855.86
2018-05-02T10:06:43.235Z,99850.69
2018-05-02T10:09:12.838Z,99839.22
2018-05-02T10:11:42.533Z,99841.36
2018-05-02T10:14:11.906Z,99840.91
2018-05-02T10:16:41.519Z,99837.99
2018-05-02T10:19:11.170Z,99838.84
2018-05-02T10:21:40.507Z,99843.78
2018-05-02T10:24:10.135Z,99837.89
2018-05-02T10:26:39.807Z,99843.27
2018-05-02T10:29:09.433Z,99829.52
2018-05-02T10:31:39.055Z,99822.41
2018-05-02T10:34:08.800Z,99824.39
2018-05-02T10:36:38.295Z,99819.86
2018-05-02T10:39:07.588Z,99827.30
2018-05-02T10:41:36.902Z,99815.30
2018-05-02T10:44:06.514Z,99811.86
2018-05-02T10:46:36.136Z,99805.93
2018-05-02T10:49:05.521Z,99818.03
2018-05-02T10:51:34.967Z,99808.77
2018-05-02T10:54:04.582Z,99804.58
2018-05-02T10:56:34.351Z,99796.79
2018-05-02T10:59:03.958Z,99802.99
2018-05-02T11:01:33.582Z,99804.00
2018-05-02T11:04:03.245Z,99797.73
2018-05-02T11:06:32.952Z,99794.02
2018-05-02T11:09:02.581Z,99798.31
2018-05-02T11:11:32.240Z,99779.62
2018-05-02T11:14:01.866Z,99784.69
2018-05-02T11:16:31.250Z,99780.63
2018-05-02T11:19:00.898Z,99784.09
2018-05-02T11:21:30.510Z,99782.67
2018-05-02T11:24:00.155Z,99776.41
2018-05-02T11:26:29.933Z,99783.70
2018-05-02T11:28:59.322Z,99766.51
2018-05-02T11:31:29.180Z,99766.95
2018-05-02T11:33:58.826Z,99759.25
2018-05-02T11:36:28.434Z,99745.39
2018-05-02T11:38:58.110Z,99741.37
2018-05-02T11:41:27.725Z,99740.20
2018-05-02T11:43:57.335Z,99731.77
2018-05-02T11:46:27.000Z,99734.42
2018-05-02T11:48:56.632Z,99722.64
2018-05-02T11:51:26.263Z,99721.50
2018-05-02T11:53:55.667Z,99716.22
2018-05-02T11:56:25.287Z,99714.67
2018-05-02T11:58:54.910Z,99711.50
2018-05-02T12:01:24.963Z,99711.41
2018-05-02T12:03:54.588Z,99708.38
2018-05-02T12:06:24.237Z,99715.55
2018-05-02T12:08:53.951Z,99708.73
2018-05-02T12:11:23.571Z,99710.00
2018-05-02T12:13:53.215Z,99702.16
2018-05-02T12:16:22.831Z,99697.03
2018-05-02T12:18:52.457Z,99685.44
2018-05-02T12:21:22.118Z,99695.33
2018-05-02T12:23:51.744Z,99680.61
2018-05-02T12:26:21.372Z,99679.42
2018-05-02T12:28:50.993Z,99673.35
2018-05-02T12:31:21.346Z,99668.61
2018-05-02T12:33:51.012Z,99670.58
2018-05-02T12:36:21.288Z,99671.34
2018-05-02T12:38:50.944Z,99662.22
2018-05-02T12:41:20.570Z,99658.53
2018-05-02T12:43:50.207Z,99666.89
2018-05-02T12:46:19.841Z,99649.36
2018-05-02T12:48:49.466Z,99639.92
2018-05-02T12:51:19.135Z,99640.30
2018-05-02T12:53:48.831Z,99629.70
2018-05-02T12:56:18.552Z,99632.61
2018-05-02T12:58:48.315Z,99623.80
2018-05-02T13:01:17.937Z,99618.58
2018-05-02T13:03:47.612Z,99620.09
2018-05-02T13:06:17.244Z,99620.05
2018-05-02T13:08:46.898Z,99615.62
2018-05-02T13:11:16.530Z,99611.59
2018-05-02T13:13:46.163Z,99617.57
2018-05-02T13:16:15.909Z,99612.27
2018-05-02T13:18:45.536Z,99609.58
2018-05-02T13:21:15.162Z,99598.83
2018-05-02T13:23:44.798Z,99593.19
2018-05-02T13:26:14.489Z,99590.83
2018-05-02T13:28:44.175Z,99588.36
2018-05-02T13:31:13.806Z,99583.51
2018-05-02T13:33:43.431Z,99578.48
2018-05-02T13:36:13.043Z,99571.52
2018-05-02T13:38:42.662Z,99573.89
2018-05-02T13:41:12.322Z,99558.27
2018-05-02T13:43:41.955Z,99560.11
2018-05-02T13:46:11.588Z,99549.48
2018-05-02T13:48:41.212Z,99555.01
2018-05-02T13:51:10.835Z,99546.68
2018-05-02T13:53:40.494Z,99543.56
2018-05-02T13:56:10.148Z,99533.50
2018-05-02T13:58:39.806Z,99535.27
2018-05-02T14:01:09.423Z,99523.69
2018-05-02T14:03:39.051Z,99519.81
2018-05-02T14:06:08.727Z,99519.84
2018-05-02T14:08:38.567Z,99508.99
2018-05-02T14:11:08.219Z,99508.57
2018-05-02T14:13:37.833Z,99508.05
2018-05-02T14:16:07.454Z,99510.88
2018-05-02T14:18:37.119Z,99500.42
2018-05-02T14:21:06.735Z,99500.80
2018-05-02T14:23:36.364Z,99492.17
2018-05-02T14:26:05.995Z,99502.87
2018-05-02T14:28:35.629Z,99495.09
2018-05-02T14:31:05.303Z,99493.00
2018-05-02T14:33:34.932Z,99489.77
2018-05-02T14:36:04.568Z,99489.03
2018-05-02T14:38:34.193Z,99481.38
2018-05-02T14:41:03.801Z,99480.97
2018-05-02T14:43:33.473Z,99474.27
2018-05-02T14:46:03.128Z,99470.81
2018-05-02T14:48:32.766Z,99460.00
2018-05-02T14:51:02.400Z,99461.47
2018-05-02T14:53:32.019Z,99471.86
2018-05-02T14:56:01.671Z,99464.48
2018-05-02T14:58:31.289Z,99463.17
2018-05-02T15:01:00.910Z,99458.43
2018-05-02T15:03:30.520Z,99464.32
2018-05-02T15:06:00.135Z,99453.38
2018-05-02T15:08:29.535Z,99455.33
2018-05-02T15:10:59.147Z,99450.86
2018-05-02T15:13:28.766Z,99444.57
2018-05-02T15:15:58.398Z,99440.66
2018-05-02T15:18:28.015Z,99436.41
2018-05-02T15:20:57.691Z,99438.11
2018-05-02T15:23:27.294Z,99437.55
2018-05-02T15:25:56.909Z,99428.77
2018-05-02T15:28:26.537Z,99418.76
2018-05-02T15:30:56.157Z,99421.08
2018-05-02T15:33:25.825Z,99413.63
2018-05-02T15:35:55.441Z,99409.02
2018-05-02T15:38:25.055Z,99406.38
2018-05-02T15:40:54.691Z,99404.07
2018-05-02T15:43:24.305Z,99407.08
2018-05-02T15:45:53.979Z,99398.69
2018-05-02T15:48:23.597Z,99391.30
2018-05-02T15:50:53.256Z,99387.86
2018-05-02T15:53:22.881Z,99395.20
2018-05-02T15:55:52.499Z,99399.14
2018-05-02T15:58:22.192Z,99398.37
2018-05-02T16:00:52.017Z,99389.13
2018-05-02T16:03:21.684Z,99390.25
2018-05-02T16:05:51.304Z,99401.81
2018-05-02T16:08:20.943Z,99402.75
2018-05-02T16:10:50.641Z,99397.70
2018-05-02T16:13:20.265Z,99397.48
2018-05-02T16:15:50.122Z,99391.59
2018-05-02T16:18:19.749Z,99397.77
2018-05-02T16:20:49.387Z,99391.91
2018-05-02T16:23:19.017Z,99393.67
2018-05-02T16:25:48.654Z,99385.52
2018-05-02T16:28:18.281Z,99385.96
2018-05-02T16:30:47.937Z,99392.16
2018-05-02T16:33:17.603Z,99389.19
2018-05-02T16:35:47.407Z,99388.16
2018-05-02T16:38:17.055Z,99390.64
2018-05-02T16:40:46.791Z,99391.73
2018-05-02T16:43:16.417Z,99392.84
2018-05-02T16:45:46.051Z,99387.82
2018-05-02T16:48:15.671Z,99385.96
2018-05-02T16:50:45.337Z,99387.58
2018-05-02T16:53:14.961Z,99387.58
2018-05-02T16:55:44.583Z,99384.75
2018-05-02T16:58:14.289Z,99384.28
2018-05-02T17:00:43.902Z,99378.43
2018-05-02T17:03:13.650Z,99382.11
2018-05-02T17:05:43.270Z,99380.81
2018-05-02T17:08:12.894Z,99379.20
2018-05-02T17:10:42.520Z,99378.20
2018-05-02T17:13:12.160Z,99376.40
2018-05-02T17:15:41.849Z,99378.96
2018-05-02T17:18:11.474Z,99375.95
2018-05-02T17:20:40.812Z,99378.70
2018-05-02T17:23:10.447Z,99374.91
2018-05-02T17:25:40.078Z,99382.69
2018-05-02T17:28:09.749Z,99375.50
2018-05-02T17:30:39.538Z,99377.80
2018-05-02T17:33:09.162Z,99378.56
2018-05-02T17:35:38.778Z,99379.81
2018-05-02T17:38:08.395Z,99377.27
2018-05-02T17:40:38.042Z,99370.23
2018-05-02T17:43:07.666Z,99371.97
2018-05-02T17:45:37.280Z,99375.31
2018-05-02T17:48:06.931Z,99376.23
2018-05-02T17:50:36.548Z,99368.59
2018-05-02T17:53:05.946Z,99366.70
2018-05-02T17:55:35.580Z,99375.56
2018-05-02T17:58:05.220Z,99376.07
2018-05-02T18:00:34.854Z,99371.39
2018-05-02T18:03:04.472Z,99365.91
2018-05-02T18:05:34.162Z,99365.85
2018-05-02T18:08:03.989Z,99372.02
2018-05-02T18:10:33.728Z,99366.88
2018-05-02T18:13:03.551Z,99367.52
2018-05-02T18:15:33.189Z,99364.24
2018-05-02T18:18:02.857Z,99371.02
2018-05-02T18:20:32.493Z,99365.70
2018-05-02T18:23:02.133Z,99365.23
2018-05-02T18:25:31.828Z,99360.44
2018-05-02T18:28:01.534Z,99356.65
2018-05-02T18:30:31.364Z,99360.22
2018-05-02T18:33:01.007Z,99354.61
2018-05-02T18:35:30.647Z,99356.52
2018-05-02T18:38:00.293Z,99359.79
2018-05-02T18:40:29.929Z,99360.41
2018-05-02T18:42:59.651Z,99355.02
2018-05-02T18:45:29.292Z,99362.20
2018-05-02T18:47:58.941Z,99361.88
2018-05-02T18:50:28.569Z,99362.38
2018-05-02T18:52:58.204Z,99367.06
2018-05-02T18:55:27.896Z,99366.83
2018-05-02T18:57:57.533Z,99368.77
2018-05-02T19:00:27.163Z,99372.06
2018-05-02T19:02:56.789Z,99365.34
2018-05-02T19:05:26.428Z,99371.48
2018-05-02T19:07:56.134Z,99368.51
2018-05-02T19:10:25.761Z,99370.38
2018-05-02T19:12:55.393Z,99369.31
2018-05-02T19:15:25.028Z,99372.60
2018-05-02T19:17:59.960Z,99374.88
2018-05-02T19:20:34.937Z,99366.48
2018-05-02T19:23:04.261Z,99374.34
2018-05-02T19:25:39.152Z,99373.64
2018-05-02T19:28:08.793Z,99369.72
2018-05-02T19:30:38.460Z,99378.29
2018-05-02T19:33:13.436Z,99380.48
2018-05-02T19:35:43.123Z,99379.81
2018-05-02T19:38:12.767Z,99367.89
2018-05-02T19:40:47.849Z,99370.23
2018-05-02T19:43:22.762Z,99371.03
2018-05-02T19:45:52.436Z,99379.75
2018-05-02T19:48:22.079Z,99378.53
2018-05-02T19:50:57.104Z,99375.70
2018-05-02T19:53:26.754Z,99373.12
2018-05-02T19:55:56.409Z,99371.08
2018-05-02T19:58:26.033Z,99368.91
2018-05-02T20:01:00.926Z,99370.55
2018-05-02T20:03:30.563Z,99371.27
2018-05-02T20:06:00.183Z,99368.72
2018-05-02T20:08:35.127Z,99370.78
2018-05-02T20:11:10.024Z,99369.42
2018-05-02T20:13:44.975Z,99368.36
2018-05-02T20:16:14.811Z,99363.74
2018-05-02T20:18:44.484Z,99363.50
2018-05-02T20:21:14.136Z,99364.34
2018-05-02T20:23:43.761Z,99363.67
2018-05-02T20:26:13.399Z,99363.92
2018-05-02T20:28:44.221Z,99353.11
2018-05-02T20:31:13.949Z,99351.37
2018-05-02T20:33:43.313Z,99345.00
2018-05-02T20:36:12.935Z,99345.03
2018-05-02T20:38:44.248Z,99350.05
2018-05-02T20:41:13.874Z,99342.89
2018-05-02T20:43:43.560Z,99335.73
2018-05-02T20:46:13.198Z,99345.76
2018-05-02T20:48:42.826Z,99334.66
2018-05-02T20:51:12.491Z,99330.33
2018-05-02T20:53:41.846Z,99328.19
2018-05-02T20:56:11.477Z,99327.27
2018-05-02T20:58:41.109Z,99324.05
2018-05-02T21:01:10.735Z,99326.36
2018-05-02T21:03:40.352Z,99320.67
2018-05-02T21:06:09.980Z,99314.57
2018-05-02T21:08:39.605Z,99319.03
2018-05-02T21:11:09.239Z,99311.34
2018-05-02T21:13:38.921Z,99314.86
2018-05-02T21:16:08.599Z,99315.02
2018-05-02T21:18:38.259Z,99309.73
2018-05-02T21:21:07.894Z,99312.59
2018-05-02T21:23:37.531Z,99305.31
2018-05-02T21:26:07.208Z,99304.46
2018-05-02T21:28:36.939Z,99306.66
2018-05-02T21:31:06.271Z,99297.70
2018-05-02T21:33:36.092Z,99295.28
2018-05-02T21:36:05.722Z,99296.77
2018-05-02T21:38:35.348Z,99292.32
2018-05-02T21:41:04.980Z,99296.50
2018-05-02T21:43:34.620Z,99300.32
2018-05-02T21:46:04.247Z,99299.39
2018-05-02T21:48:33.895Z,99300.46
2018-05-02T21:51:03.522Z,99308.34
2018-05-02T21:53:33.190Z,99304.28
2018-05-02T21:56:02.811Z,99298.20
2018-05-02T21:58:32.197Z,99294.41
2018-05-02T22:01:01.859Z,99289.81
2018-05-02T22:03:31.218Z,99286.59
2018-05-02T22:06:00.896Z,99284.58
2018-05-02T22:08:30.519Z,99278.48
2018-05-02T22:11:00.173Z,99270.64
2018-05-02T22:13:29.815Z,99280.67
2018-05-02T22:15:59.435Z,99278.52
2018-05-02T22:18:29.192Z,99282.43
2018-05-02T22:20:58.810Z,99290.69
2018-05-02T22:23:28.456Z,99288.92
2018-05-02T22:25:58.110Z,99292.05
2018-05-02T22:28:27.743Z,99282.19
2018-05-02T22:30:57.384Z,99283.55
2018-05-02T22:33:27.019Z,99281.12
2018-05-02T22:35:56.704Z,99272.19
2018-05-02T22:38:26.337Z,99271.25
2018-05-02T22:40:56.013Z,99277.46
2018-05-02T22:43:25.642Z,99270.59
2018-05-02T22:45:55.263Z,99270.44
2018-05-02T22:48:24.894Z,99267.33
2018-05-02T22:50:54.526Z,99259.35
2018-05-02T22:53:24.206Z,99254.61
2018-05-02T22:55:53.833Z,99256.64
2018-05-02T22:58:23.458Z,99246.91
2018-05-02T23:00:53.083Z,99251.51
2018-05-02T23:03:22.716Z,99243.27
2018-05-02T23:05:52.395Z,99245.58
2018-05-02T23:08:22.027Z,99240.02
2018-05-02T23:10:51.650Z,99238.00
2018-05-02T23:13:21.279Z,99235.99
2018-05-02T23:15:50.917Z,99231.52
2018-05-02T23:18:20.749Z,99232.45
2018-05-02T23:20:50.603Z,99227.06
2018-05-02T23:23:20.270Z,99230.03
2018-05-02T23:25:49.909Z,99218.95
2018-05-02T23:28:19.539Z,99212.75
2018-05-02T23:30:49.166Z,99212.08
2018-05-02T23:33:18.806Z,99209.91
2018-05-02T23:35:48.199Z,99206.92
2018-05-02T23:38:17.895Z,99214.89
2018-05-02T23:40:47.561Z,99216.49
2018-05-02T23:43:17.213Z,99204.89
2018-05-02T23:45:46.848Z,99204.20
2018-05-02T23:48:16.531Z,99207.30
2018-05-02T23:50:46.152Z,99208.36
2018-05-02T23:53:15.831Z,99210.14
2018-05-02T23:55:45.472Z,99203.80
2018-05-02T23:58:15.104Z,99206.22
